Terminal Aerodrome Forecast
Issued by NWS

Home | Current Version | Previous Version | Graphics & Text | Print | Product List | Glossary On
Versions: 1 2 3 4 5 6 7 8 9 10 11 12 13 14 15 16
288
FTUS43 KABR 291728
TAFATY
TAF
KATY 291728Z 2918/3018 15008KT P6SM BKN035
      TEMPO 2918/2919 BKN030
     FM300100 13010KT P6SM SKC=

USA.gov is the U.S. government's official web portal to all federal, state and local government web resources and services.